Time;durP1;ratioP1;P1;durP2;ratioP2;P2;SDS_P1;SDS_P2;PMS_P1;PMS_P2;Temp;Humidity;BMP_temperature;BMP_pressure;BME280_temperature;BME280_humidity;BME280_pressure;Samples;Min_cycle;Max_cycle;Signal;HPM_P1;HPM_P2
2022/11/20 00:01:15;;;;;;;4.38;3.22;;;12.50;64.00;;;;;;5023515;28;20022;-74
2022/11/20 00:03:42;;;;;;;4.13;3.05;;;12.50;64.00;;;;;;5023543;28;20022;-74
2022/11/20 00:06:10;;;;;;;3.42;3.13;;;12.50;64.00;;;;;;5024709;28;20017;-73
2022/11/20 00:08:36;;;;;;;;;;;12.50;64.10;;;;;;5027738;28;20060;-73
2022/11/20 00:11:16;;;;;;;3.70;2.80;;;12.50;64.20;;;;;;5027320;28;19901;-72
2022/11/20 00:13:46;;;;;;;3.80;3.17;;;12.50;64.10;;;;;;5027305;28;20057;-73
2022/11/20 00:16:13;;;;;;;3.95;2.72;;;12.50;64.10;;;;;;5027190;28;20084;-73
2022/11/20 00:18:39;;;;;;;4.35;3.13;;;12.40;64.10;;;;;;5027136;28;20089;-73
2022/11/20 00:21:10;;;;;;;5.28;2.90;;;12.40;64.10;;;;;;5027117;28;20022;-71
2022/11/20 00:23:36;;;;;;;3.33;2.97;;;12.40;64.20;;;;;;5027128;28;20052;-73
2022/11/20 00:26:06;;;;;;;3.10;2.80;;;12.40;64.20;;;;;;5027021;28;20029;-72
2022/11/20 00:28:32;;;;;;;3.95;3.28;;;12.40;64.20;;;;;;5026911;28;20018;-72
2022/11/20 00:31:10;;;;;;;3.00;2.70;;;12.40;64.30;;;;;;5026961;28;20021;-74
2022/11/20 00:33:36;;;;;;;3.72;3.33;;;12.40;64.20;;;;;;5026904;28;20014;-74
2022/11/20 00:36:05;;;;;;;3.58;3.20;;;12.40;64.10;;;;;;5026835;28;20313;-72
2022/11/20 00:38:31;;;;;;;;;;;12.40;64.00;;;;;;5027323;28;20325;-73
2022/11/20 00:40:58;;;;;;;3.38;2.80;;;12.50;64.00;;;;;;5026775;28;19901;-73
2022/11/20 00:43:24;;;;;;;2.90;2.60;;;12.50;63.80;;;;;;5026633;28;20050;-73
2022/11/20 00:45:50;;;;;;;3.55;3.00;;;12.50;64.00;;;;;;5026671;28;20034;-73
2022/11/20 00:48:16;;;;;;;4.07;3.17;;;12.50;64.00;;;;;;5026595;28;20022;-73
2022/11/20 00:50:42;;;;;;;4.25;3.65;;;12.50;64.00;;;;;;5026596;28;20205;-72
2022/11/20 00:53:08;;;;;;;3.67;2.75;;;12.50;64.00;;;;;;5026595;28;20021;-73
2022/11/20 00:55:34;;;;;;;3.25;2.53;;;12.50;64.00;;;;;;5026504;28;20028;-73
2022/11/20 00:57:59;;;;;;;4.10;3.00;;;12.50;64.10;;;;;;5026477;28;20033;-73
2022/11/20 01:00:25;;;;;;;3.65;3.25;;;12.50;64.00;;;;;;5026400;28;20049;-73
2022/11/20 01:02:51;;;;;;;3.35;2.75;;;12.50;64.00;;;;;;5026367;28;20025;-72
2022/11/20 01:05:17;;;;;;;3.92;3.15;;;12.50;64.10;;;;;;5026295;28;20025;-74
2022/11/20 01:07:42;;;;;;;3.03;2.70;;;12.40;64.10;;;;;;5026144;28;20041;-74
2022/11/20 01:10:08;;;;;;;3.63;3.00;;;12.40;64.10;;;;;;5026245;28;20025;-73
2022/11/20 01:12:34;;;;;;;3.17;2.85;;;12.40;64.00;;;;;;5026175;28;20018;-74
2022/11/20 01:15:00;;;;;;;3.55;2.72;;;12.40;64.00;;;;;;5026110;28;20017;-74
2022/11/20 01:17:26;;;;;;;4.43;3.42;;;12.40;64.00;;;;;;5025058;28;20030;-73
2022/11/20 01:19:51;;;;;;;3.42;2.90;;;12.40;64.00;;;;;;5025996;28;20294;-72
2022/11/20 01:22:17;;;;;;;3.20;2.90;;;12.40;64.00;;;;;;5025961;28;20049;-72
2022/11/20 01:24:43;;;;;;;3.75;3.00;;;12.40;64.10;;;;;;5025941;28;20022;-72
2022/11/20 01:27:09;;;;;;;3.53;2.88;;;12.40;64.00;;;;;;5025834;28;20313;-72
2022/11/20 01:29:34;;;;;;;4.13;2.72;;;12.40;64.10;;;;;;5025830;28;20027;-73
2022/11/20 01:32:00;;;;;;;3.28;2.75;;;12.50;64.00;;;;;;5025805;28;20033;-73
2022/11/20 01:34:26;;;;;;;3.58;2.88;;;12.50;63.90;;;;;;5025757;28;20017;-72
2022/11/20 01:36:53;;;;;;;3.72;3.13;;;12.50;64.00;;;;;;5025725;28;20017;-72
2022/11/20 01:39:24;;;;;;;3.30;3.00;;;12.50;64.00;;;;;;5025744;28;20022;-71
2022/11/20 01:44:58;;;;;;;3.20;2.80;;;12.40;64.00;;;;;;5025636;28;20021;-74
2022/11/20 01:47:46;;;;;;;2.80;2.38;;;12.40;64.10;;;;;;5025501;28;20216;-74
2022/11/20 01:50:32;;;;;;;3.10;2.63;;;12.40;64.70;;;;;;5025491;28;20036;-73
2022/11/20 01:53:02;;;;;;;3.65;2.97;;;12.40;64.10;;;;;;5025455;28;20244;-73
2022/11/20 01:55:37;;;;;;;3.75;3.22;;;12.40;64.20;;;;;;5025357;28;20024;-73
2022/11/20 01:58:04;;;;;;;3.30;2.88;;;12.40;64.00;;;;;;5040718;28;20049;-72
2022/11/20 02:00:30;;;;;;;3.55;2.75;;;12.40;64.00;;;;;;5025245;28;20041;-72
2022/11/20 02:03:09;;;;;;;3.38;2.92;;;12.40;64.00;;;;;;5025197;28;20022;-73
2022/11/20 02:05:37;;;;;;;3.53;3.08;;;12.40;64.10;;;;;;5025263;28;20048;-73
2022/11/20 02:08:05;;;;;;;3.80;2.85;;;12.40;64.20;;;;;;5025052;28;20022;-73
2022/11/20 02:10:32;;;;;;;3.30;2.72;;;12.40;64.10;;;;;;5025125;28;20191;-72
2022/11/20 02:15:43;;;;;;;4.28;3.00;;;12.40;64.10;;;;;;5024996;28;20359;-73
2022/11/20 02:18:11;;;;;;;3.95;2.88;;;12.30;64.10;;;;;;5024924;28;20018;-72
2022/11/20 02:20:38;;;;;;;3.42;2.75;;;12.40;64.10;;;;;;5024848;28;20286;-72
2022/11/20 02:23:07;;;;;;;4.47;3.25;;;12.40;64.00;;;;;;5024865;28;20340;-72
2022/11/20 02:25:36;;;;;;;4.15;2.88;;;12.40;63.90;;;;;;5024803;28;20026;-71
2022/11/20 02:28:02;;;;;;;;;;;12.40;63.90;;;;;;5025148;28;20090;-73
2022/11/20 02:30:28;;;;;;;3.45;2.72;;;12.50;63.90;;;;;;5024525;28;19901;-73
2022/11/20 02:32:53;;;;;;;4.07;3.17;;;12.40;63.90;;;;;;5024723;28;20077;-74
2022/11/20 02:35:19;;;;;;;4.55;2.80;;;12.40;63.90;;;;;;5024667;28;20021;-72
2022/11/20 02:37:48;;;;;;;3.33;2.75;;;12.40;64.00;;;;;;5024615;28;20049;-72
2022/11/20 02:40:14;;;;;;;3.45;2.70;;;12.40;64.10;;;;;;5024943;28;20033;-72
2022/11/20 02:42:41;;;;;;;3.88;2.90;;;12.40;64.00;;;;;;5024421;28;20284;-73
2022/11/20 02:45:07;;;;;;;3.17;2.83;;;12.40;64.00;;;;;;5024184;28;20085;-73
2022/11/20 02:47:33;;;;;;;4.32;2.50;;;12.40;64.00;;;;;;5024369;28;20017;-73
2022/11/20 02:49:59;;;;;;;3.75;2.95;;;12.40;64.10;;;;;;5024446;28;20331;-71
2022/11/20 02:52:26;;;;;;;3.63;3.17;;;12.30;64.00;;;;;;5024366;28;20017;-72
2022/11/20 02:54:52;;;;;;;3.22;2.63;;;12.30;64.10;;;;;;5024331;28;20020;-72
2022/11/20 02:57:18;;;;;;;3.97;3.20;;;12.40;64.10;;;;;;5024247;28;20348;-72
2022/11/20 02:59:43;;;;;;;3.70;3.05;;;12.40;64.00;;;;;;5024180;28;20017;-74
2022/11/20 03:02:09;;;;;;;4.55;3.03;;;12.40;64.00;;;;;;5024208;28;20077;-74
2022/11/20 03:04:35;;;;;;;3.65;2.67;;;12.40;64.10;;;;;;5024124;28;20022;-73
2022/11/20 03:07:01;;;;;;;2.55;2.35;;;12.40;64.10;;;;;;5024078;28;20028;-72
2022/11/20 03:09:27;;;;;;;4.75;3.38;;;12.30;64.00;;;;;;5024149;28;20021;-72
2022/11/20 03:11:52;;;;;;;3.33;2.78;;;12.30;64.00;;;;;;5024042;28;20018;-72
2022/11/20 03:14:19;;;;;;;3.63;3.03;;;12.40;63.90;;;;;;5024033;28;20017;-73
2022/11/20 03:16:45;;;;;;;5.15;3.33;;;12.40;63.90;;;;;;5023945;28;20244;-73
2022/11/20 03:19:12;;;;;;;3.58;2.70;;;12.40;63.90;;;;;;5023889;28;20041;-72
2022/11/20 03:21:37;;;;;;;3.45;3.08;;;12.40;64.00;;;;;;5023952;28;20336;-73
2022/11/20 03:24:04;;;;;;;3.70;3.03;;;12.40;64.00;;;;;;5023852;28;20018;-72
2022/11/20 03:26:30;;;;;;;3.20;2.90;;;12.40;64.00;;;;;;5023875;28;20049;-74
2022/11/20 03:29:00;;;;;;;3.95;3.25;;;12.30;64.10;;;;;;5023699;28;20022;-73
2022/11/20 03:31:29;;;;;;;4.00;2.67;;;12.30;64.20;;;;;;5023844;28;20128;-73
2022/11/20 03:33:59;;;;;;;3.20;2.65;;;12.30;64.10;;;;;;5023802;28;20022;-73
2022/11/20 03:36:26;;;;;;;3.33;2.90;;;12.30;64.10;;;;;;5023789;28;20025;-70
2022/11/20 03:38:54;;;;;;;3.70;2.80;;;12.30;64.10;;;;;;5023663;28;20018;-72
2022/11/20 03:41:21;;;;;;;4.57;3.13;;;12.30;64.00;;;;;;5027478;28;20022;-74
2022/11/20 03:43:49;;;;;;;3.20;2.55;;;12.30;64.00;;;;;;5030137;28;20053;-74
2022/11/20 03:46:16;;;;;;;3.63;2.95;;;12.30;64.00;;;;;;5030199;28;20028;-74
2022/11/20 03:48:41;;;;;;;4.18;2.60;;;12.30;64.00;;;;;;5030063;28;20320;-75
2022/11/20 03:51:17;;;;;;;3.17;2.40;;;12.30;64.00;;;;;;5030123;28;20021;-72
2022/11/20 03:53:45;;;;;;;4.00;3.17;;;12.30;64.20;;;;;;5030223;28;20045;-73
2022/11/20 03:56:11;;;;;;;4.28;3.33;;;12.30;64.20;;;;;;5030240;28;20014;-71
2022/11/20 03:58:39;;;;;;;3.40;3.03;;;12.30;64.00;;;;;;5030103;28;20018;-72
2022/11/20 04:01:10;;;;;;;2.83;2.42;;;12.30;64.00;;;;;;5030031;28;20017;-73
2022/11/20 04:03:38;;;;;;;3.72;2.72;;;12.30;63.90;;;;;;5030058;28;20022;-73
2022/11/20 04:06:08;;;;;;;3.03;2.58;;;12.40;63.90;;;;;;5030035;28;20013;-72
2022/11/20 04:08:34;;;;;;;3.22;2.92;;;12.40;63.80;;;;;;5029931;28;20025;-71
2022/11/20 04:11:18;;;;;;;3.45;2.80;;;12.40;63.90;;;;;;5030061;28;20026;-73
2022/11/20 04:13:53;;;;;;;2.97;2.50;;;12.40;63.90;;;;;;5030014;28;20306;-73
2022/11/20 04:16:19;;;;;;;3.78;2.83;;;12.30;63.90;;;;;;5029962;28;20318;-74
2022/11/20 04:18:45;;;;;;;3.60;2.80;;;12.40;63.90;;;;;;5029909;28;20029;-73
2022/11/20 04:21:12;;;;;;;3.17;2.88;;;12.30;63.90;;;;;;5029962;28;20306;-73
2022/11/20 04:23:38;;;;;;;3.13;2.80;;;12.30;64.00;;;;;;5029942;28;20026;-73
2022/11/20 04:26:12;;;;;;;4.00;3.10;;;12.30;64.00;;;;;;5045301;28;20048;-72
2022/11/20 04:28:39;;;;;;;4.50;2.92;;;12.30;64.00;;;;;;5029835;28;20060;-72
2022/11/20 04:31:13;;;;;;;4.15;2.65;;;12.30;64.00;;;;;;5029811;28;20048;-73
2022/11/20 04:33:39;;;;;;;3.13;2.75;;;12.30;64.00;;;;;;5029882;28;20037;-73
2022/11/20 04:36:07;;;;;;;3.65;2.72;;;12.30;64.00;;;;;;5029790;28;20024;-72
2022/11/20 04:38:33;;;;;;;3.17;2.72;;;12.30;64.00;;;;;;5029766;28;20026;-72
2022/11/20 04:41:00;;;;;;;4.20;3.08;;;12.30;64.10;;;;;;5029776;28;20017;-73
2022/11/20 04:43:26;;;;;;;2.70;2.47;;;12.20;64.10;;;;;;5029604;28;20084;-72
2022/11/20 04:45:56;;;;;;;3.28;2.63;;;12.30;64.20;;;;;;5029721;28;20287;-73
2022/11/20 04:48:22;;;;;;;3.97;3.15;;;12.30;64.10;;;;;;5029663;28;20085;-73
2022/11/20 04:50:48;;;;;;;2.90;2.65;;;12.30;63.90;;;;;;5029687;28;20029;-72
2022/11/20 04:53:14;;;;;;;3.33;2.70;;;12.30;64.00;;;;;;5027114;28;20009;-73
2022/11/20 04:55:40;;;;;;;3.97;3.10;;;12.30;63.90;;;;;;5041880;28;20209;-72
2022/11/20 04:58:07;;;;;;;3.15;2.60;;;12.30;63.80;;;;;;5026387;28;20089;-72
2022/11/20 05:00:33;;;;;;;3.83;2.75;;;12.40;63.80;;;;;;5026437;28;20046;-73
2022/11/20 05:02:58;;;;;;;3.80;3.13;;;12.40;63.70;;;;;;5026363;28;20066;-73
2022/11/20 05:05:24;;;;;;;4.18;3.03;;;12.40;64.40;;;;;;5026388;28;20032;-72
2022/11/20 05:07:50;;;;;;;2.70;2.20;;;12.40;63.80;;;;;;5026212;28;20017;-72
2022/11/20 05:10:16;;;;;;;4.25;2.90;;;12.40;63.90;;;;;;5026192;28;20018;-73
2022/11/20 05:12:43;;;;;;;2.78;2.38;;;12.30;63.80;;;;;;5026199;28;20018;-73
2022/11/20 05:15:09;;;;;;;3.85;3.00;;;12.30;63.90;;;;;;5026160;28;20022;-74
2022/11/20 05:17:35;;;;;;;4.43;3.17;;;12.30;63.90;;;;;;5026107;28;20049;-72
2022/11/20 05:20:01;;;;;;;4.30;3.05;;;12.30;64.00;;;;;;5026035;28;20169;-72
2022/11/20 05:22:26;;;;;;;2.88;2.63;;;12.20;64.10;;;;;;5026081;28;20088;-72
2022/11/20 05:24:52;;;;;;;2.95;2.63;;;12.30;64.20;;;;;;5026024;28;20026;-72
2022/11/20 05:27:18;;;;;;;3.63;2.97;;;12.30;64.10;;;;;;5025864;28;20314;-72
2022/11/20 05:29:44;;;;;;;3.78;2.78;;;12.30;64.00;;;;;;5025880;28;20022;-73
2022/11/20 05:32:09;;;;;;;3.30;2.88;;;12.20;64.00;;;;;;5025800;28;20018;-72
2022/11/20 05:34:36;;;;;;;2.65;2.45;;;12.20;64.00;;;;;;5025765;28;20314;-72
2022/11/20 05:37:02;;;;;;;2.90;2.60;;;12.30;64.10;;;;;;5025766;28;20018;-73
2022/11/20 05:39:28;;;;;;;2.83;2.40;;;12.30;64.00;;;;;;5025625;28;20014;-72
2022/11/20 05:44:39;;;;;;;3.05;2.70;;;12.30;63.80;;;;;;5025666;28;20065;-74
2022/11/20 05:47:05;;;;;;;3.03;2.42;;;12.40;63.90;;;;;;5025446;28;20040;-74
2022/11/20 05:49:31;;;;;;;3.28;2.70;;;12.30;63.80;;;;;;5025499;28;20487;-72
2022/11/20 05:51:57;;;;;;;2.97;2.70;;;12.30;63.80;;;;;;5025442;28;20037;-72
2022/11/20 05:54:23;;;;;;;3.25;2.78;;;12.30;63.80;;;;;;5025478;28;20017;-73
2022/11/20 05:56:49;;;;;;;4.90;2.80;;;12.30;63.80;;;;;;5025410;28;20014;-72
2022/11/20 05:59:15;;;;;;;3.58;2.97;;;12.30;64.00;;;;;;5025356;28;20049;-73
2022/11/20 06:01:41;;;;;;;3.55;2.83;;;12.30;64.00;;;;;;5025271;28;20136;-73
2022/11/20 06:04:06;;;;;;;3.95;3.08;;;12.30;64.00;;;;;;5024726;28;20026;-72
2022/11/20 06:06:32;;;;;;;3.70;2.80;;;12.30;64.10;;;;;;5025235;28;20017;-72
2022/11/20 06:08:58;;;;;;;3.75;3.00;;;12.30;64.10;;;;;;5025123;28;20032;-73
2022/11/20 06:11:25;;;;;;;4.07;3.13;;;12.20;64.20;;;;;;5025143;28;20205;-73
2022/11/20 06:13:51;;;;;;;3.08;2.60;;;12.20;64.20;;;;;;5025114;28;20026;-72
2022/11/20 06:16:19;;;;;;;3.50;2.63;;;12.20;64.10;;;;;;5024990;28;20081;-73
2022/11/20 06:18:46;;;;;;;3.70;2.80;;;12.20;63.90;;;;;;5025048;28;20029;-72
2022/11/20 06:21:18;;;;;;;3.40;2.92;;;12.30;64.00;;;;;;5025024;28;20046;-72
2022/11/20 06:23:44;;;;;;;3.17;2.67;;;12.30;64.00;;;;;;5040272;28;20313;-73
2022/11/20 06:26:13;;;;;;;3.95;3.00;;;12.30;64.00;;;;;;5024893;28;20098;-73
2022/11/20 06:28:39;;;;;;;3.25;2.95;;;12.30;63.80;;;;;;5024820;28;20213;-73
2022/11/20 06:31:06;;;;;;;2.95;2.33;;;12.30;64.40;;;;;;5024762;28;20299;-72
2022/11/20 06:33:33;;;;;;;4.00;2.90;;;12.30;63.80;;;;;;5024763;28;20057;-72
2022/11/20 06:36:00;;;;;;;3.10;2.80;;;12.30;63.80;;;;;;5024726;28;20018;-72
2022/11/20 06:38:27;;;;;;;3.90;3.30;;;12.40;63.70;;;;;;5024645;28;20021;-72
2022/11/20 06:40:53;;;;;;;3.38;2.80;;;12.40;63.70;;;;;;5024661;28;20079;-71
2022/11/20 06:43:19;;;;;;;2.80;2.60;;;12.40;63.70;;;;;;5024420;28;20265;-72
2022/11/20 06:45:45;;;;;;;2.75;2.53;;;12.30;63.70;;;;;;5039891;28;20025;-72
2022/11/20 06:48:10;;;;;;;3.45;2.67;;;12.30;63.80;;;;;;5024455;28;20314;-72
2022/11/20 06:50:37;;;;;;;3.28;2.67;;;12.30;63.80;;;;;;5024444;28;20025;-72
2022/11/20 06:53:04;;;;;;;3.05;2.58;;;12.30;63.80;;;;;;5024380;28;20053;-73
2022/11/20 06:55:31;;;;;;;3.28;2.40;;;12.30;63.90;;;;;;5024356;28;20041;-72
2022/11/20 06:57:57;;;;;;;3.30;2.50;;;12.20;64.00;;;;;;5024374;28;20029;-72
2022/11/20 07:00:24;;;;;;;3.45;2.70;;;12.20;64.00;;;;;;5024305;28;20241;-72
2022/11/20 07:02:49;;;;;;;3.53;2.72;;;12.20;64.00;;;;;;5024236;28;20026;-73
2022/11/20 07:05:15;;;;;;;3.58;2.92;;;12.20;64.10;;;;;;5024264;28;20018;-72
2022/11/20 07:07:42;;;;;;;3.08;2.75;;;12.20;64.10;;;;;;5024128;28;20036;-71
2022/11/20 07:10:08;;;;;;;3.20;2.90;;;12.20;64.00;;;;;;5024139;28;20017;-72
2022/11/20 07:12:34;;;;;;;3.15;2.85;;;12.30;64.00;;;;;;5024108;28;20109;-72
2022/11/20 07:14:59;;;;;;;2.90;2.47;;;12.30;63.90;;;;;;5023564;28;20018;-72
2022/11/20 07:17:25;;;;;;;3.78;2.65;;;12.30;63.60;;;;;;5023669;28;20080;-71
2022/11/20 07:19:51;;;;;;;3.97;2.95;;;12.40;63.60;;;;;;5023991;28;20045;-72
2022/11/20 07:22:17;;;;;;;4.13;2.72;;;12.40;63.60;;;;;;5023941;28;20025;-73
2022/11/20 07:24:43;;;;;;;3.67;2.55;;;12.40;63.60;;;;;;5023942;28;20049;-72
2022/11/20 07:27:08;;;;;;;3.75;3.00;;;12.40;63.60;;;;;;5023781;28;20332;-72
2022/11/20 07:29:34;;;;;;;2.88;2.60;;;12.30;63.60;;;;;;5023851;28;20087;-72
2022/11/20 07:32:00;;;;;;;3.55;2.72;;;12.30;63.60;;;;;;5023757;28;20018;-73
2022/11/20 07:34:26;;;;;;;4.38;3.20;;;12.30;63.70;;;;;;5023848;28;20018;-73
2022/11/20 07:36:51;;;;;;;3.15;2.60;;;12.30;63.80;;;;;;5023808;28;20022;-73
2022/11/20 07:39:17;;;;;;;4.20;3.17;;;12.30;63.80;;;;;;5023801;28;20028;-74
2022/11/20 07:41:43;;;;;;;3.55;3.17;;;12.30;63.90;;;;;;5023635;28;20340;-72
2022/11/20 07:44:09;;;;;;;3.97;2.85;;;12.30;63.80;;;;;;5023748;28;20206;-73
2022/11/20 07:46:35;;;;;;;3.63;2.90;;;12.30;63.80;;;;;;5023787;28;20026;-72
2022/11/20 07:49:00;;;;;;;3.83;2.78;;;12.20;63.90;;;;;;5023664;28;20033;-71
2022/11/20 07:51:27;;;;;;;4.43;3.22;;;12.30;63.90;;;;;;5023743;28;20024;-73
2022/11/20 07:53:53;;;;;;;3.55;2.60;;;12.20;63.90;;;;;;5023657;28;20183;-72
2022/11/20 07:56:19;;;;;;;3.42;2.67;;;12.20;63.80;;;;;;5023637;28;20329;-72
2022/11/20 07:58:44;;;;;;;4.20;3.28;;;12.30;63.90;;;;;;5023562;28;20089;-72
2022/11/20 08:01:10;;;;;;;4.57;2.70;;;12.30;63.80;;;;;;5023528;28;20033;-73
2022/11/20 08:03:37;;;;;;;2.63;2.40;;;12.40;63.70;;;;;;5023551;28;20021;-72
2022/11/20 08:06:03;;;;;;;3.38;2.90;;;12.40;63.50;;;;;;5023512;28;20030;-73
2022/11/20 08:08:29;;;;;;;3.25;2.65;;;12.40;63.40;;;;;;5023733;28;20076;-71
2022/11/20 08:16:26;;;;;;;3.30;2.67;;;12.40;63.40;;;;;;5023489;28;20057;-73
2022/11/20 08:18:52;;;;;;;3.55;2.92;;;12.40;63.40;;;;;;5023404;28;20018;-72
2022/11/20 08:21:18;;;;;;;3.67;3.25;;;12.40;63.50;;;;;;5023338;28;20018;-72
2022/11/20 08:23:44;;;;;;;2.85;2.15;;;12.40;63.60;;;;;;5023355;28;20045;-72
2022/11/20 08:26:09;;;;;;;3.40;2.80;;;12.30;63.70;;;;;;5023321;28;20021;-73
2022/11/20 08:28:35;;;;;;;3.38;2.70;;;12.30;63.80;;;;;;5026676;28;20045;-73
2022/11/20 08:31:02;;;;;;;3.00;2.70;;;12.30;63.80;;;;;;5027072;28;20428;-73
2022/11/20 08:33:29;;;;;;;3.95;2.92;;;12.30;63.80;;;;;;5027004;28;20013;-73
2022/11/20 08:35:59;;;;;;;3.88;3.05;;;12.30;63.80;;;;;;5026950;28;20356;-73
2022/11/20 08:38:25;;;;;;;3.03;2.67;;;12.30;63.70;;;;;;5026909;28;20026;-73
2022/11/20 08:43:35;;;;;;;3.00;2.65;;;12.30;63.80;;;;;;5026657;28;20076;-72
2022/11/20 08:46:01;;;;;;;3.47;2.70;;;12.30;63.70;;;;;;5026750;28;20021;-71
2022/11/20 08:48:27;;;;;;;4.88;3.20;;;12.30;63.60;;;;;;5042003;28;20017;-72
2022/11/20 08:50:53;;;;;;;2.97;2.53;;;12.40;63.60;;;;;;5026649;28;20022;-72
2022/11/20 08:53:18;;;;;;;2.60;2.38;;;12.40;63.40;;;;;;5026669;28;20057;-73
2022/11/20 08:55:44;;;;;;;3.78;2.97;;;12.40;63.40;;;;;;5026587;28;20018;-72
2022/11/20 08:58:10;;;;;;;3.55;2.85;;;12.40;63.40;;;;;;5026541;28;20098;-73
2022/11/20 09:00:36;;;;;;;3.50;3.10;;;12.40;63.40;;;;;;5026418;28;20065;-72
2022/11/20 09:03:02;;;;;;;4.05;3.28;;;12.40;63.50;;;;;;5026449;28;20022;-73
2022/11/20 09:05:27;;;;;;;3.38;2.58;;;12.40;63.50;;;;;;5026366;28;20213;-72
2022/11/20 09:07:57;;;;;;;3.28;2.60;;;12.40;63.50;;;;;;5026261;28;20271;-74
2022/11/20 09:10:23;;;;;;;3.88;3.00;;;12.30;63.50;;;;;;5026273;28;20028;-72
2022/11/20 09:12:51;;;;;;;3.35;2.67;;;12.40;63.50;;;;;;5026252;28;20017;-72
2022/11/20 09:15:17;;;;;;;4.03;3.05;;;12.40;63.40;;;;;;5026254;28;20021;-72
2022/11/20 09:18:00;;;;;;;3.88;2.97;;;12.40;63.50;;;;;;5026253;28;20017;-73
2022/11/20 09:20:28;;;;;;;3.30;2.60;;;12.40;63.50;;;;;;5026203;28;20190;-72
2022/11/20 09:22:54;;;;;;;4.18;3.30;;;12.40;63.50;;;;;;5026019;28;20021;-73
2022/11/20 09:25:21;;;;;;;4.32;3.08;;;12.40;63.50;;;;;;5026005;28;20025;-73
2022/11/20 09:27:47;;;;;;;3.45;2.88;;;12.40;63.40;;;;;;5025896;28;20332;-72
2022/11/20 09:30:16;;;;;;;3.13;2.80;;;12.40;63.50;;;;;;5025897;28;20206;-72
2022/11/20 09:32:42;;;;;;;;;;;12.40;63.40;;;;;;5026280;28;20029;-72
2022/11/20 09:35:08;;;;;;;3.08;2.78;;;12.40;63.40;;;;;;5025865;28;19901;-73
2022/11/20 09:37:34;;;;;;;4.15;2.95;;;12.40;63.30;;;;;;5025749;28;20045;-73
2022/11/20 09:40:00;;;;;;;3.35;2.97;;;12.40;63.30;;;;;;5024845;28;20026;-72
2022/11/20 09:42:44;;;;;;;2.90;2.65;;;12.40;63.30;;;;;;5025481;28;20050;-71
2022/11/20 09:45:19;;;;;;;3.33;2.60;;;12.40;63.40;;;;;;5025669;28;20202;-72
2022/11/20 09:48:09;;;;;;;3.35;3.00;;;12.40;63.40;;;;;;5025474;28;20026;-72
2022/11/20 09:51:11;;;;;;;3.95;3.00;;;12.40;63.30;;;;;;5025548;28;20045;-72
2022/11/20 09:54:00;;;;;;;4.28;3.10;;;12.50;63.30;;;;;;5023414;28;20041;-73
2022/11/20 09:56:28;;;;;;;3.63;2.80;;;12.50;63.10;;;;;;5025494;28;20389;-73
2022/11/20 09:59:04;;;;;;;3.50;2.75;;;12.60;63.00;;;;;;5025383;28;20021;-72
2022/11/20 10:01:34;;;;;;;3.53;2.70;;;12.60;62.90;;;;;;5025416;28;20041;-72
2022/11/20 10:04:02;;;;;;;3.58;3.20;;;12.60;62.90;;;;;;5025360;28;20064;-73
2022/11/20 10:06:47;;;;;;;3.92;3.05;;;12.60;62.90;;;;;;5025323;28;20026;-72
2022/11/20 10:09:13;;;;;;;3.05;2.65;;;12.60;63.00;;;;;;5025182;28;20337;-73
2022/11/20 10:11:57;;;;;;;3.20;2.90;;;12.50;63.10;;;;;;5025179;28;20029;-72
2022/11/20 10:14:40;;;;;;;3.67;2.85;;;12.50;63.30;;;;;;5025169;28;20077;-73
2022/11/20 10:17:21;;;;;;;3.35;2.72;;;12.40;63.40;;;;;;5025146;28;20040;-72
2022/11/20 10:20:05;;;;;;;2.80;2.55;;;12.40;63.40;;;;;;5025318;28;20017;-72
2022/11/20 10:22:41;;;;;;;3.15;2.70;;;12.50;63.30;;;;;;5025034;28;20037;-73
2022/11/20 10:25:14;;;;;;;3.30;3.00;;;12.50;63.20;;;;;;5025269;28;20295;-73
2022/11/20 10:28:09;;;;;;;2.50;2.30;;;12.50;63.00;;;;;;5024819;28;20025;-73
2022/11/20 10:30:40;;;;;;;3.17;2.65;;;12.50;63.10;;;;;;5004084;28;20041;-73
2022/11/20 10:33:17;;;;;;;3.67;2.90;;;12.60;62.90;;;;;;5024793;28;20025;-73
2022/11/20 10:35:45;;;;;;;3.17;2.75;;;12.60;62.80;;;;;;5024768;28;20065;-72
2022/11/20 10:38:31;;;;;;;3.67;2.78;;;12.60;62.70;;;;;;5024713;28;20111;-72
2022/11/20 10:43:46;;;;;;;3.88;2.80;;;12.70;62.80;;;;;;5024408;28;20048;-73
2022/11/20 10:46:19;;;;;;;3.58;2.92;;;12.70;62.60;;;;;;5024540;28;20024;-72
2022/11/20 10:48:46;;;;;;;2.97;2.53;;;12.60;62.70;;;;;;5024452;28;20052;-72
2022/11/20 10:51:57;;;;;;;3.47;2.80;;;12.60;62.70;;;;;;5024329;28;20024;-72
2022/11/20 10:54:57;;;;;;;3.25;2.83;;;12.70;62.50;;;;;;5020026;28;20092;-72
2022/11/20 10:57:48;;;;;;;3.85;3.15;;;12.70;62.40;;;;;;5024387;28;20014;-73
2022/11/20 11:00:16;;;;;;;3.40;2.90;;;12.80;62.30;;;;;;5024274;28;20052;-73
2022/11/20 11:02:47;;;;;;;3.83;3.43;;;12.80;62.50;;;;;;5024226;28;20098;-72
2022/11/20 11:05:40;;;;;;;3.10;2.67;;;12.70;62.60;;;;;;5024224;28;20244;-72
2022/11/20 11:08:16;;;;;;;3.47;2.83;;;12.70;62.80;;;;;;5024118;28;20025;-73
2022/11/20 11:10:53;;;;;;;3.30;2.65;;;12.60;63.00;;;;;;5024189;28;20028;-72
2022/11/20 11:13:20;;;;;;;4.18;3.28;;;12.60;63.00;;;;;;5024165;28;20249;-72
2022/11/20 11:15:45;;;;;;;2.97;2.55;;;12.60;63.00;;;;;;5024047;28;20051;-72
2022/11/20 11:18:22;;;;;;;3.80;2.78;;;12.60;63.00;;;;;;5024076;28;20026;-72
2022/11/20 11:20:52;;;;;;;4.05;3.28;;;12.60;63.10;;;;;;5024018;28;20064;-73
2022/11/20 11:23:36;;;;;;;2.72;2.45;;;12.60;63.20;;;;;;5023970;28;20021;-72
2022/11/20 11:26:04;;;;;;;3.47;3.00;;;12.60;63.20;;;;;;5023967;28;20093;-71
2022/11/20 11:28:31;;;;;;;3.60;2.85;;;12.60;63.20;;;;;;5023843;28;20352;-72
2022/11/20 11:30:57;;;;;;;2.90;2.60;;;12.60;63.10;;;;;;5023894;28;20253;-72
2022/11/20 11:33:24;;;;;;;3.00;2.63;;;12.60;63.90;;;;;;5023863;28;20017;-72
2022/11/20 11:35:53;;;;;;;3.65;2.78;;;12.60;63.30;;;;;;5023889;28;20024;-73
2022/11/20 11:38:36;;;;;;;3.28;2.75;;;12.60;63.40;;;;;;5023825;28;20029;-72
2022/11/20 11:41:04;;;;;;;3.20;2.90;;;12.60;63.40;;;;;;5023783;28;20076;-73
2022/11/20 11:46:20;;;;;;;3.07;2.77;;;12.60;63.40;;;;;;5023777;28;20041;-73
2022/11/20 11:49:01;;;;;;;4.20;3.22;;;12.60;63.40;;;;;;5023572;28;20017;-72
2022/11/20 11:51:39;;;;;;;3.33;2.75;;;12.60;63.40;;;;;;5023681;28;20017;-72
2022/11/20 11:54:23;;;;;;;3.80;2.97;;;12.60;63.40;;;;;;5023751;28;20018;-72
2022/11/20 11:56:50;;;;;;;5.05;3.20;;;12.60;63.20;;;;;;5023642;28;20081;-72
2022/11/20 11:59:57;;;;;;;4.10;3.10;;;12.60;63.30;;;;;;5023667;28;20030;-72
2022/11/20 12:02:49;;;;;;;4.43;2.90;;;12.60;63.90;;;;;;4984287;28;20154;-72
2022/11/20 12:05:36;;;;;;;3.33;2.72;;;12.70;63.10;;;;;;5020366;28;20057;-72
2022/11/20 12:08:20;;;;;;;3.35;2.80;;;12.60;63.20;;;;;;5027462;28;20276;-73
2022/11/20 12:11:12;;;;;;;4.15;2.90;;;12.60;63.30;;;;;;5027417;28;20045;-73
2022/11/20 12:14:04;;;;;;;3.30;2.65;;;12.60;63.40;;;;;;5027442;28;20017;-72
2022/11/20 12:16:35;;;;;;;4.18;3.30;;;12.70;63.30;;;;;;5027297;28;20017;-72
2022/11/20 12:19:01;;;;;;;4.03;3.10;;;12.70;63.20;;;;;;5027315;28;20264;-72
2022/11/20 12:22:04;;;;;;;3.28;2.97;;;12.60;63.30;;;;;;5027242;28;20029;-72
2022/11/20 12:24:44;;;;;;;2.78;2.58;;;12.60;63.20;;;;;;5027222;28;20029;-73
2022/11/20 12:27:47;;;;;;;3.38;2.72;;;12.60;63.30;;;;;;5027073;28;20029;-73
2022/11/20 12:30:15;;;;;;;4.15;3.13;;;12.70;63.40;;;;;;5027120;28;20022;-72
2022/11/20 12:32:52;;;;;;;3.05;2.70;;;12.60;63.40;;;;;;5027056;28;20302;-72
2022/11/20 12:35:36;;;;;;;5.00;2.95;;;12.70;63.30;;;;;;5027089;28;20033;-71
2022/11/20 12:38:24;;;;;;;3.63;2.67;;;12.70;63.30;;;;;;5026886;28;20018;-72
2022/11/20 12:47:28;;;;;;;3.35;2.90;;;12.70;63.40;;;;;;5026732;28;20024;-71
2022/11/20 12:50:31;;;;;;;3.58;2.70;;;12.70;63.40;;;;;;5025593;28;20105;-72
2022/11/20 12:53:21;;;;;;;3.05;2.70;;;12.60;63.50;;;;;;5017733;28;20068;-71
2022/11/20 12:56:00;;;;;;;3.58;2.92;;;12.60;63.70;;;;;;5026722;28;20014;-72
2022/11/20 12:58:39;;;;;;;3.03;2.58;;;12.50;63.90;;;;;;5026602;28;20310;-74
2022/11/20 13:01:39;;;;;;;2.67;2.47;;;12.50;64.00;;;;;;5026566;28;20100;-73
2022/11/20 13:04:36;;;;;;;3.63;2.65;;;12.50;64.10;;;;;;5026220;28;20072;-72
2022/11/20 13:07:14;;;;;;;3.58;3.00;;;12.50;64.10;;;;;;5026413;28;20332;-73
2022/11/20 13:09:49;;;;;;;4.23;3.13;;;12.60;63.80;;;;;;5041275;28;20097;-73
2022/11/20 13:12:36;;;;;;;4.13;2.80;;;12.60;63.60;;;;;;5041541;28;20018;-73
2022/11/20 13:15:33;;;;;;;3.40;3.10;;;12.60;63.50;;;;;;5025256;28;20014;-73
2022/11/20 13:18:07;;;;;;;2.92;2.60;;;12.70;63.40;;;;;;5026210;28;20072;-72
2022/11/20 13:20:34;;;;;;;3.58;3.00;;;12.60;63.50;;;;;;5026160;28;20018;-72
2022/11/20 13:23:00;;;;;;;2.80;2.47;;;12.60;63.60;;;;;;5026068;28;20026;-72
2022/11/20 13:25:29;;;;;;;3.90;3.20;;;12.50;63.80;;;;;;5026045;28;20045;-72
2022/11/20 13:27:57;;;;;;;3.72;2.65;;;12.60;63.80;;;;;;5025917;28;20048;-72
2022/11/20 13:30:28;;;;;;;4.03;3.38;;;12.60;63.80;;;;;;5025926;28;20018;-71
2022/11/20 13:33:00;;;;;;;3.97;3.22;;;12.50;63.90;;;;;;5025902;28;20022;-72